USCGC Tern — NEOT — position and weather

sailwx.info

Track history (hours):
 
Tides and Currents Weather Stations Pressure Air Temp Water Temp Dewpoint Dewpoint Depression Visibility Wind Speed Wind Dir Waves Ship Positions

USCGC Tern

Last reported at 2015-Jan-16 19:33 UTC. Time now 2015-Jan-25 10:20 UTC.
Position N 37°49' W 122°25'.
Warning: this ship's position is 8 days out of date.

Length 26 m; draft 12 m.

Type: Military. MMSI: 366999711.

Date/timePositionNaut miles runAvg speedWind from/ knotsBaromVisibWave heightAir tempDewpointWater temp
2015-Jan-16 19:33N 37°49' W 122°25'3 2.5
2015-Jan-16 18:33N 37°48' W 122°22'14 0.6
2015-Jan-15 18:14N 37°47' W 122°39'912.6
2015-Jan-15 17:33N 37°49' W 122°29'2 0.0
2015-Jan-13 20:33N 37°48' W 122°31'7 7.3
2015-Jan-13 19:32N 37°49' W 122°22'0 0.0
2015-Jan-13 18:32N 37°49' W 122°22'0 0.0
2015-Jan-13 17:33N 37°49' W 122°22'0 0.0
2015-Jan-13 16:33N 37°49' W 122°22'0 0.0
2015-Jan-13 15:33N 37°49' W 122°22'0 0.0
2015-Jan-13 14:33N 37°49' W 122°22'0 0.0
2015-Jan-13 13:29N 37°49' W 122°22'0 0.0
2015-Jan-13 12:32N 37°49' W 122°22'0 0.0
2015-Jan-13 11:32N 37°49' W 122°22'0 0.0
2015-Jan-13 10:32N 37°49' W 122°22'0 0.0
2015-Jan-13 09:32N 37°49' W 122°22'0 0.0
2015-Jan-13 08:32N 37°49' W 122°22'0 0.0
2015-Jan-13 07:30N 37°49' W 122°22'0 0.0
2015-Jan-13 06:33N 37°49' W 122°22'0 0.0
2015-Jan-13 05:29N 37°49' W 122°22'0 0.0
2015-Jan-13 04:32N 37°49' W 122°22'0 0.0
2015-Jan-13 03:32N 37°49' W 122°22'0 0.0
2015-Jan-13 02:32N 37°49' W 122°22'0 0.0
2015-Jan-13 01:32N 37°49' W 122°22'0 0.0
2015-Jan-13 00:32N 37°49' W 122°22'0 0.0
2015-Jan-12 23:30N 37°49' W 122°22'0 0.0
2015-Jan-12 22:30N 37°49' W 122°22'0 0.0
2015-Jan-12 21:33N 37°49' W 122°22'0 0.0
2015-Jan-12 20:29N 37°49' W 122°22'0 0.0
2015-Jan-12 19:29N 37°49' W 122°22'0 0.0
2015-Jan-12 18:32N 37°49' W 122°22'3 2.9
2015-Jan-12 17:33N 37°49' W 122°25'1 0.9
2015-Jan-12 16:33N 37°49' W 122°26'  
2015-Jan-09 16:33N 37°49' W 122°25'3 0.1
2015-Jan-08 03:43N 37°49' W 122°22'6 0.6
2015-Jan-07 18:24N 37°49' W 122°29'6 6.5
2015-Jan-07 17:34N 37°49' W 122°22'0 0.0
2015-Jan-07 16:33N 37°49' W 122°22'6 1.9
2015-Jan-07 13:30N 37°51' W 122°28'0 0.0
2015-Jan-07 12:13N 37°51' W 122°28'0 0.0
2015-Jan-07 11:31N 37°51' W 122°28'0 0.0
2015-Jan-07 10:31N 37°51' W 122°28'0 0.0
2015-Jan-07 09:31N 37°51' W 122°28'0 0.0
2015-Jan-07 08:28N 37°51' W 122°28'0 0.0
2015-Jan-07 07:30N 37°51' W 122°28'0 0.0
2015-Jan-07 06:30N 37°51' W 122°28'0 0.0
2015-Jan-07 05:33N 37°51' W 122°28'0 0.0
2015-Jan-07 04:33N 37°51' W 122°28'0 0.0
2015-Jan-07 03:28N 37°51' W 122°28'0 0.0
2015-Jan-07 02:31N 37°51' W 122°28'0 0.0
2015-Jan-07 01:31N 37°51' W 122°28'0 0.0
2015-Jan-07 00:28N 37°51' W 122°28'3 3.2
2015-Jan-06 23:33N 37°52' W 122°25'4 3.8
2015-Jan-06 22:33N 37°49' W 122°25'6 6.2
2015-Jan-06 21:33N 37°55' W 122°26'1 1.0
2015-Jan-06 20:33N 37°54' W 122°26'3 3.1
2015-Jan-06 19:33N 37°51' W 122°28'  
Track history (hours):
 
Tides and Currents Weather Stations Pressure Air Temp Water Temp Dewpoint Dewpoint Depression Visibility Wind Speed Wind Dir Waves Ship Positions

USCGC Tern

Last reported at 2015-Jan-16 19:33 UTC. Time now 2015-Jan-25 10:20 UTC.
Position N 37°49' W 122°25'.
Warning: this ship's position is 8 days out of date.

Length 26 m; draft 12 m.

Type: Military. MMSI: 366999711.

Date/timePositionNaut miles runAvg speedWind from/ knotsBaromVisibWave heightAir tempDewpointWater temp
2015-Jan-16 19:33N 37°49' W 122°25'3 2.5
2015-Jan-16 18:33N 37°48' W 122°22'14 0.6
2015-Jan-15 18:14N 37°47' W 122°39'912.6
2015-Jan-15 17:33N 37°49' W 122°29'2 0.0
2015-Jan-13 20:33N 37°48' W 122°31'7 7.3
2015-Jan-13 19:32N 37°49' W 122°22'0 0.0
2015-Jan-13 18:32N 37°49' W 122°22'0 0.0
2015-Jan-13 17:33N 37°49' W 122°22'0 0.0
2015-Jan-13 16:33N 37°49' W 122°22'0 0.0
2015-Jan-13 15:33N 37°49' W 122°22'0 0.0
2015-Jan-13 14:33N 37°49' W 122°22'0 0.0
2015-Jan-13 13:29N 37°49' W 122°22'0 0.0
2015-Jan-13 12:32N 37°49' W 122°22'0 0.0
2015-Jan-13 11:32N 37°49' W 122°22'0 0.0
2015-Jan-13 10:32N 37°49' W 122°22'0 0.0
2015-Jan-13 09:32N 37°49' W 122°22'0 0.0
2015-Jan-13 08:32N 37°49' W 122°22'0 0.0
2015-Jan-13 07:30N 37°49' W 122°22'0 0.0
2015-Jan-13 06:33N 37°49' W 122°22'0 0.0
2015-Jan-13 05:29N 37°49' W 122°22'0 0.0
2015-Jan-13 04:32N 37°49' W 122°22'0 0.0
2015-Jan-13 03:32N 37°49' W 122°22'0 0.0
2015-Jan-13 02:32N 37°49' W 122°22'0 0.0
2015-Jan-13 01:32N 37°49' W 122°22'0 0.0
2015-Jan-13 00:32N 37°49' W 122°22'0 0.0
2015-Jan-12 23:30N 37°49' W 122°22'0 0.0
2015-Jan-12 22:30N 37°49' W 122°22'0 0.0
2015-Jan-12 21:33N 37°49' W 122°22'0 0.0
2015-Jan-12 20:29N 37°49' W 122°22'0 0.0
2015-Jan-12 19:29N 37°49' W 122°22'0 0.0
2015-Jan-12 18:32N 37°49' W 122°22'3 2.9
2015-Jan-12 17:33N 37°49' W 122°25'1 0.9
2015-Jan-12 16:33N 37°49' W 122°26'  
2015-Jan-09 16:33N 37°49' W 122°25'3 0.1
2015-Jan-08 03:43N 37°49' W 122°22'6 0.6
2015-Jan-07 18:24N 37°49' W 122°29'6 6.5
2015-Jan-07 17:34N 37°49' W 122°22'0 0.0
2015-Jan-07 16:33N 37°49' W 122°22'6 1.9
2015-Jan-07 13:30N 37°51' W 122°28'0 0.0
2015-Jan-07 12:13N 37°51' W 122°28'0 0.0
2015-Jan-07 11:31N 37°51' W 122°28'0 0.0
2015-Jan-07 10:31N 37°51' W 122°28'0 0.0
2015-Jan-07 09:31N 37°51' W 122°28'0 0.0
2015-Jan-07 08:28N 37°51' W 122°28'0 0.0
2015-Jan-07 07:30N 37°51' W 122°28'0 0.0
2015-Jan-07 06:30N 37°51' W 122°28'0 0.0
2015-Jan-07 05:33N 37°51' W 122°28'0 0.0
2015-Jan-07 04:33N 37°51' W 122°28'0 0.0
2015-Jan-07 03:28N 37°51' W 122°28'0 0.0
2015-Jan-07 02:31N 37°51' W 122°28'0 0.0
2015-Jan-07 01:31N 37°51' W 122°28'0 0.0
2015-Jan-07 00:28N 37°51' W 122°28'3 3.2
2015-Jan-06 23:33N 37°52' W 122°25'4 3.8
2015-Jan-06 22:33N 37°49' W 122°25'6 6.2
2015-Jan-06 21:33N 37°55' W 122°26'1 1.0
2015-Jan-06 20:33N 37°54' W 122°26'3 3.1
2015-Jan-06 19:33N 37°51' W 122°28'  

Dump ship's entire track history